sensor_id;sensor_type;location;lat;lon;timestamp;P1;durP1;ratioP1;P2;durP2;ratioP2
29184;SDS011;16233;47.964;-3.842;2022-11-20T00:00:35;22.65;;;21.35;;
29184;SDS011;16233;47.964;-3.842;2022-11-20T00:02:37;22.17;;;20.45;;
29184;SDS011;16233;47.964;-3.842;2022-11-20T00:04:38;21.30;;;20.27;;
29184;SDS011;16233;47.964;-3.842;2022-11-20T00:06:40;20.67;;;19.77;;
29184;SDS011;16233;47.964;-3.842;2022-11-20T00:08:42;21.80;;;20.80;;
29184;SDS011;16233;47.964;-3.842;2022-11-20T00:10:43;22.25;;;21.02;;
29184;SDS011;16233;47.964;-3.842;2022-11-20T00:12:44;22.33;;;20.77;;
29184;SDS011;16233;47.964;-3.842;2022-11-20T00:14:45;22.95;;;21.70;;
29184;SDS011;16233;47.964;-3.842;2022-11-20T00:16:46;20.95;;;19.90;;
29184;SDS011;16233;47.964;-3.842;2022-11-20T00:18:47;21.13;;;20.02;;
29184;SDS011;16233;47.964;-3.842;2022-11-20T00:20:48;21.33;;;20.33;;
29184;SDS011;16233;47.964;-3.842;2022-11-20T00:22:51;21.27;;;20.27;;
29184;SDS011;16233;47.964;-3.842;2022-11-20T00:24:52;22.10;;;20.75;;
29184;SDS011;16233;47.964;-3.842;2022-11-20T00:26:53;21.27;;;20.17;;
29184;SDS011;16233;47.964;-3.842;2022-11-20T00:28:54;19.60;;;18.60;;
29184;SDS011;16233;47.964;-3.842;2022-11-20T00:31:00;20.33;;;19.33;;
29184;SDS011;16233;47.964;-3.842;2022-11-20T00:33:02;19.00;;;18.10;;
29184;SDS011;16233;47.964;-3.842;2022-11-20T00:35:03;20.50;;;19.23;;
29184;SDS011;16233;47.964;-3.842;2022-11-20T00:37:05;19.42;;;18.42;;
29184;SDS011;16233;47.964;-3.842;2022-11-20T00:39:07;20.02;;;18.88;;
29184;SDS011;16233;47.964;-3.842;2022-11-20T00:41:09;20.27;;;19.27;;
29184;SDS011;16233;47.964;-3.842;2022-11-20T00:43:11;20.23;;;19.20;;
29184;SDS011;16233;47.964;-3.842;2022-11-20T00:45:12;19.50;;;18.45;;
29184;SDS011;16233;47.964;-3.842;2022-11-20T00:47:13;20.65;;;19.35;;
29184;SDS011;16233;47.964;-3.842;2022-11-20T00:49:14;20.77;;;19.65;;
29184;SDS011;16233;47.964;-3.842;2022-11-20T00:51:15;21.30;;;20.30;;
29184;SDS011;16233;47.964;-3.842;2022-11-20T00:53:18;21.25;;;20.15;;
29184;SDS011;16233;47.964;-3.842;2022-11-20T00:55:20;20.60;;;19.60;;
29184;SDS011;16233;47.964;-3.842;2022-11-20T00:57:21;20.38;;;19.38;;
29184;SDS011;16233;47.964;-3.842;2022-11-20T00:59:22;19.70;;;18.70;;
29184;SDS011;16233;47.964;-3.842;2022-11-20T01:01:24;20.83;;;19.77;;
29184;SDS011;16233;47.964;-3.842;2022-11-20T01:03:25;19.52;;;18.20;;
29184;SDS011;16233;47.964;-3.842;2022-11-20T01:05:26;19.85;;;18.95;;
29184;SDS011;16233;47.964;-3.842;2022-11-20T01:07:27;20.27;;;19.17;;
29184;SDS011;16233;47.964;-3.842;2022-11-20T01:09:28;20.52;;;18.98;;
29184;SDS011;16233;47.964;-3.842;2022-11-20T01:11:33;20.30;;;19.23;;
29184;SDS011;16233;47.964;-3.842;2022-11-20T01:13:35;19.92;;;19.00;;
29184;SDS011;16233;47.964;-3.842;2022-11-20T01:15:36;19.55;;;18.67;;
29184;SDS011;16233;47.964;-3.842;2022-11-20T01:17:37;19.50;;;18.52;;
29184;SDS011;16233;47.964;-3.842;2022-11-20T01:19:38;20.40;;;19.50;;
29184;SDS011;16233;47.964;-3.842;2022-11-20T01:21:40;18.90;;;18.00;;
29184;SDS011;16233;47.964;-3.842;2022-11-20T01:23:42;19.10;;;18.10;;
29184;SDS011;16233;47.964;-3.842;2022-11-20T01:25:45;19.20;;;18.20;;
29184;SDS011;16233;47.964;-3.842;2022-11-20T01:27:48;19.45;;;18.55;;
29184;SDS011;16233;47.964;-3.842;2022-11-20T01:29:49;18.42;;;17.60;;
29184;SDS011;16233;47.964;-3.842;2022-11-20T01:31:50;18.40;;;17.60;;
29184;SDS011;16233;47.964;-3.842;2022-11-20T01:33:52;18.58;;;17.77;;
29184;SDS011;16233;47.964;-3.842;2022-11-20T01:36:02;19.80;;;18.90;;
29184;SDS011;16233;47.964;-3.842;2022-11-20T01:38:04;18.02;;;17.23;;
29184;SDS011;16233;47.964;-3.842;2022-11-20T01:40:05;18.13;;;17.23;;
29184;SDS011;16233;47.964;-3.842;2022-11-20T01:42:08;18.48;;;17.58;;
29184;SDS011;16233;47.964;-3.842;2022-11-20T01:44:12;19.27;;;18.17;;
29184;SDS011;16233;47.964;-3.842;2022-11-20T01:46:15;18.52;;;17.70;;
29184;SDS011;16233;47.964;-3.842;2022-11-20T01:48:18;18.77;;;17.92;;
29184;SDS011;16233;47.964;-3.842;2022-11-20T01:50:21;19.67;;;18.77;;
29184;SDS011;16233;47.964;-3.842;2022-11-20T01:52:26;19.70;;;18.80;;
29184;SDS011;16233;47.964;-3.842;2022-11-20T01:54:38;19.95;;;19.02;;
29184;SDS011;16233;47.964;-3.842;2022-11-20T01:56:44;18.98;;;18.08;;
29184;SDS011;16233;47.964;-3.842;2022-11-20T01:58:48;19.35;;;18.50;;
29184;SDS011;16233;47.964;-3.842;2022-11-20T02:00:53;19.77;;;18.88;;
29184;SDS011;16233;47.964;-3.842;2022-11-20T02:02:55;19.88;;;18.80;;
29184;SDS011;16233;47.964;-3.842;2022-11-20T02:05:02;18.83;;;17.73;;
29184;SDS011;16233;47.964;-3.842;2022-11-20T02:07:12;18.63;;;17.60;;
29184;SDS011;16233;47.964;-3.842;2022-11-20T02:09:13;19.23;;;18.02;;
29184;SDS011;16233;47.964;-3.842;2022-11-20T02:11:15;20.42;;;18.98;;
29184;SDS011;16233;47.964;-3.842;2022-11-20T02:13:16;19.77;;;18.70;;
29184;SDS011;16233;47.964;-3.842;2022-11-20T02:15:17;18.92;;;18.00;;
29184;SDS011;16233;47.964;-3.842;2022-11-20T02:17:20;20.52;;;18.65;;
29184;SDS011;16233;47.964;-3.842;2022-11-20T02:19:22;20.60;;;19.17;;
29184;SDS011;16233;47.964;-3.842;2022-11-20T02:21:32;20.00;;;18.55;;
29184;SDS011;16233;47.964;-3.842;2022-11-20T02:23:38;19.90;;;18.95;;
29184;SDS011;16233;47.964;-3.842;2022-11-20T02:25:47;18.92;;;17.77;;
29184;SDS011;16233;47.964;-3.842;2022-11-20T02:27:49;20.10;;;19.08;;
29184;SDS011;16233;47.964;-3.842;2022-11-20T02:29:51;18.25;;;17.20;;
29184;SDS011;16233;47.964;-3.842;2022-11-20T02:31:55;19.20;;;18.20;;
29184;SDS011;16233;47.964;-3.842;2022-11-20T02:33:58;18.58;;;17.45;;
29184;SDS011;16233;47.964;-3.842;2022-11-20T02:35:58;19.63;;;18.48;;
29184;SDS011;16233;47.964;-3.842;2022-11-20T02:38:01;18.70;;;17.70;;
29184;SDS011;16233;47.964;-3.842;2022-11-20T02:40:03;19.55;;;18.38;;
29184;SDS011;16233;47.964;-3.842;2022-11-20T02:42:06;21.00;;;19.25;;
29184;SDS011;16233;47.964;-3.842;2022-11-20T02:44:07;21.27;;;19.70;;
29184;SDS011;16233;47.964;-3.842;2022-11-20T02:46:09;21.75;;;20.00;;
29184;SDS011;16233;47.964;-3.842;2022-11-20T02:48:10;21.67;;;20.15;;
29184;SDS011;16233;47.964;-3.842;2022-11-20T02:50:11;20.48;;;18.92;;
29184;SDS011;16233;47.964;-3.842;2022-11-20T02:52:12;19.88;;;18.50;;
29184;SDS011;16233;47.964;-3.842;2022-11-20T02:54:13;21.77;;;20.05;;
29184;SDS011;16233;47.964;-3.842;2022-11-20T02:56:14;20.52;;;19.23;;
29184;SDS011;16233;47.964;-3.842;2022-11-20T02:58:18;21.23;;;19.02;;
29184;SDS011;16233;47.964;-3.842;2022-11-20T03:00:19;20.42;;;19.00;;
29184;SDS011;16233;47.964;-3.842;2022-11-20T03:02:20;20.05;;;18.50;;
29184;SDS011;16233;47.964;-3.842;2022-11-20T03:04:21;21.02;;;19.33;;
29184;SDS011;16233;47.964;-3.842;2022-11-20T03:06:22;21.42;;;20.05;;
29184;SDS011;16233;47.964;-3.842;2022-11-20T03:08:23;21.20;;;19.50;;
29184;SDS011;16233;47.964;-3.842;2022-11-20T03:10:24;23.10;;;21.02;;
29184;SDS011;16233;47.964;-3.842;2022-11-20T03:12:25;21.23;;;19.52;;
29184;SDS011;16233;47.964;-3.842;2022-11-20T03:14:27;22.45;;;20.95;;
29184;SDS011;16233;47.964;-3.842;2022-11-20T03:16:30;20.73;;;18.92;;
29184;SDS011;16233;47.964;-3.842;2022-11-20T03:18:32;20.67;;;19.02;;
29184;SDS011;16233;47.964;-3.842;2022-11-20T03:20:32;20.75;;;18.95;;
29184;SDS011;16233;47.964;-3.842;2022-11-20T03:22:34;20.85;;;19.55;;
29184;SDS011;16233;47.964;-3.842;2022-11-20T03:24:35;20.85;;;18.92;;
29184;SDS011;16233;47.964;-3.842;2022-11-20T03:26:36;21.00;;;19.45;;
29184;SDS011;16233;47.964;-3.842;2022-11-20T03:28:39;20.90;;;19.10;;
29184;SDS011;16233;47.964;-3.842;2022-11-20T03:30:42;20.73;;;19.17;;
29184;SDS011;16233;47.964;-3.842;2022-11-20T03:32:43;22.75;;;19.77;;
29184;SDS011;16233;47.964;-3.842;2022-11-20T03:34:44;22.90;;;20.77;;
29184;SDS011;16233;47.964;-3.842;2022-11-20T03:36:45;20.08;;;18.42;;
29184;SDS011;16233;47.964;-3.842;2022-11-20T03:38:46;21.30;;;19.75;;
29184;SDS011;16233;47.964;-3.842;2022-11-20T03:40:47;23.48;;;20.60;;
29184;SDS011;16233;47.964;-3.842;2022-11-20T03:42:48;21.00;;;19.10;;
29184;SDS011;16233;47.964;-3.842;2022-11-20T03:44:49;21.60;;;19.55;;
29184;SDS011;16233;47.964;-3.842;2022-11-20T03:46:52;22.50;;;19.77;;
29184;SDS011;16233;47.964;-3.842;2022-11-20T03:48:53;31.40;;;20.50;;
29184;SDS011;16233;47.964;-3.842;2022-11-20T03:51:05;23.02;;;21.08;;
29184;SDS011;16233;47.964;-3.842;2022-11-20T03:53:08;28.65;;;20.67;;
29184;SDS011;16233;47.964;-3.842;2022-11-20T03:55:09;24.10;;;19.92;;
29184;SDS011;16233;47.964;-3.842;2022-11-20T03:57:10;31.70;;;20.17;;
29184;SDS011;16233;47.964;-3.842;2022-11-20T03:59:11;25.63;;;20.13;;
29184;SDS011;16233;47.964;-3.842;2022-11-20T04:01:12;31.77;;;21.10;;
29184;SDS011;16233;47.964;-3.842;2022-11-20T04:03:16;29.08;;;21.02;;
29184;SDS011;16233;47.964;-3.842;2022-11-20T04:05:17;35.83;;;20.67;;
29184;SDS011;16233;47.964;-3.842;2022-11-20T04:07:18;30.25;;;21.48;;
29184;SDS011;16233;47.964;-3.842;2022-11-20T04:09:19;21.80;;;19.13;;
29184;SDS011;16233;47.964;-3.842;2022-11-20T04:11:20;45.58;;;22.08;;
29184;SDS011;16233;47.964;-3.842;2022-11-20T04:13:22;25.52;;;20.42;;
29184;SDS011;16233;47.964;-3.842;2022-11-20T04:15:23;36.70;;;24.27;;
29184;SDS011;16233;47.964;-3.842;2022-11-20T04:17:24;43.15;;;22.40;;
29184;SDS011;16233;47.964;-3.842;2022-11-20T04:19:27;31.40;;;20.63;;
29184;SDS011;16233;47.964;-3.842;2022-11-20T04:21:28;30.42;;;21.38;;
29184;SDS011;16233;47.964;-3.842;2022-11-20T04:23:29;37.83;;;24.80;;
29184;SDS011;16233;47.964;-3.842;2022-11-20T04:25:30;35.38;;;20.80;;
29184;SDS011;16233;47.964;-3.842;2022-11-20T04:27:31;38.53;;;21.40;;
29184;SDS011;16233;47.964;-3.842;2022-11-20T04:29:32;31.42;;;22.05;;
29184;SDS011;16233;47.964;-3.842;2022-11-20T04:31:33;40.63;;;21.27;;
29184;SDS011;16233;47.964;-3.842;2022-11-20T04:33:35;49.42;;;21.52;;
29184;SDS011;16233;47.964;-3.842;2022-11-20T04:35:38;31.35;;;20.42;;
29184;SDS011;16233;47.964;-3.842;2022-11-20T04:37:39;32.53;;;21.25;;
29184;SDS011;16233;47.964;-3.842;2022-11-20T04:39:40;31.60;;;20.35;;
29184;SDS011;16233;47.964;-3.842;2022-11-20T04:41:41;31.27;;;21.05;;
29184;SDS011;16233;47.964;-3.842;2022-11-20T04:43:45;31.63;;;20.88;;
29184;SDS011;16233;47.964;-3.842;2022-11-20T04:45:50;36.83;;;22.08;;
29184;SDS011;16233;47.964;-3.842;2022-11-20T04:47:51;27.65;;;19.95;;
29184;SDS011;16233;47.964;-3.842;2022-11-20T04:49:52;30.42;;;21.17;;
29184;SDS011;16233;47.964;-3.842;2022-11-20T04:51:55;31.13;;;20.48;;
29184;SDS011;16233;47.964;-3.842;2022-11-20T04:53:56;32.30;;;19.75;;
29184;SDS011;16233;47.964;-3.842;2022-11-20T04:55:59;28.83;;;20.48;;
29184;SDS011;16233;47.964;-3.842;2022-11-20T04:58:00;31.20;;;20.17;;
29184;SDS011;16233;47.964;-3.842;2022-11-20T05:00:01;28.42;;;21.27;;
29184;SDS011;16233;47.964;-3.842;2022-11-20T05:02:03;31.85;;;20.85;;
29184;SDS011;16233;47.964;-3.842;2022-11-20T05:04:04;28.73;;;19.13;;
29184;SDS011;16233;47.964;-3.842;2022-11-20T05:06:05;28.92;;;20.33;;
29184;SDS011;16233;47.964;-3.842;2022-11-20T05:08:08;26.63;;;20.15;;
29184;SDS011;16233;47.964;-3.842;2022-11-20T05:10:09;27.85;;;22.88;;
29184;SDS011;16233;47.964;-3.842;2022-11-20T05:12:10;24.10;;;20.33;;
29184;SDS011;16233;47.964;-3.842;2022-11-20T05:14:11;25.55;;;20.48;;
29184;SDS011;16233;47.964;-3.842;2022-11-20T05:16:13;24.95;;;19.63;;
29184;SDS011;16233;47.964;-3.842;2022-11-20T05:18:15;26.67;;;19.65;;
29184;SDS011;16233;47.964;-3.842;2022-11-20T05:20:16;25.05;;;21.05;;
29184;SDS011;16233;47.964;-3.842;2022-11-20T05:22:17;28.20;;;23.13;;
29184;SDS011;16233;47.964;-3.842;2022-11-20T05:24:19;23.30;;;19.63;;
29184;SDS011;16233;47.964;-3.842;2022-11-20T05:26:21;34.38;;;19.73;;
29184;SDS011;16233;47.964;-3.842;2022-11-20T05:28:23;24.90;;;18.40;;
29184;SDS011;16233;47.964;-3.842;2022-11-20T05:30:25;29.85;;;20.05;;
29184;SDS011;16233;47.964;-3.842;2022-11-20T05:32:29;29.15;;;19.10;;
29184;SDS011;16233;47.964;-3.842;2022-11-20T05:34:30;26.33;;;19.55;;
29184;SDS011;16233;47.964;-3.842;2022-11-20T05:36:31;27.30;;;20.10;;
29184;SDS011;16233;47.964;-3.842;2022-11-20T05:38:32;35.60;;;19.27;;
29184;SDS011;16233;47.964;-3.842;2022-11-20T05:40:35;31.08;;;20.67;;
29184;SDS011;16233;47.964;-3.842;2022-11-20T05:42:36;32.80;;;22.48;;
29184;SDS011;16233;47.964;-3.842;2022-11-20T05:44:37;27.45;;;20.73;;
29184;SDS011;16233;47.964;-3.842;2022-11-20T05:46:38;22.23;;;19.75;;
29184;SDS011;16233;47.964;-3.842;2022-11-20T05:48:39;30.38;;;18.95;;
29184;SDS011;16233;47.964;-3.842;2022-11-20T05:50:41;26.45;;;18.95;;
29184;SDS011;16233;47.964;-3.842;2022-11-20T05:52:42;25.73;;;19.88;;
29184;SDS011;16233;47.964;-3.842;2022-11-20T05:54:43;34.85;;;22.77;;
29184;SDS011;16233;47.964;-3.842;2022-11-20T05:56:46;37.22;;;22.33;;
29184;SDS011;16233;47.964;-3.842;2022-11-20T05:58:47;25.75;;;19.23;;
29184;SDS011;16233;47.964;-3.842;2022-11-20T06:00:49;24.48;;;21.70;;
29184;SDS011;16233;47.964;-3.842;2022-11-20T06:02:50;25.42;;;18.92;;
29184;SDS011;16233;47.964;-3.842;2022-11-20T06:04:51;33.53;;;20.80;;
29184;SDS011;16233;47.964;-3.842;2022-11-20T06:06:51;25.38;;;21.35;;
29184;SDS011;16233;47.964;-3.842;2022-11-20T06:08:53;23.63;;;20.20;;
29184;SDS011;16233;47.964;-3.842;2022-11-20T06:10:54;47.35;;;23.52;;
29184;SDS011;16233;47.964;-3.842;2022-11-20T06:12:58;31.67;;;19.60;;
29184;SDS011;16233;47.964;-3.842;2022-11-20T06:14:59;25.48;;;20.40;;
29184;SDS011;16233;47.964;-3.842;2022-11-20T06:17:00;21.95;;;19.40;;
29184;SDS011;16233;47.964;-3.842;2022-11-20T06:19:01;32.03;;;21.40;;
29184;SDS011;16233;47.964;-3.842;2022-11-20T06:21:03;32.88;;;21.05;;
29184;SDS011;16233;47.964;-3.842;2022-11-20T06:23:05;33.95;;;22.60;;
29184;SDS011;16233;47.964;-3.842;2022-11-20T06:25:06;21.52;;;19.25;;
29184;SDS011;16233;47.964;-3.842;2022-11-20T06:27:08;30.02;;;21.50;;
29184;SDS011;16233;47.964;-3.842;2022-11-20T06:29:10;31.77;;;20.13;;
29184;SDS011;16233;47.964;-3.842;2022-11-20T06:31:12;34.05;;;22.40;;
29184;SDS011;16233;47.964;-3.842;2022-11-20T06:33:14;35.72;;;21.80;;
29184;SDS011;16233;47.964;-3.842;2022-11-20T06:35:15;38.70;;;20.73;;
29184;SDS011;16233;47.964;-3.842;2022-11-20T06:37:16;30.27;;;19.77;;
29184;SDS011;16233;47.964;-3.842;2022-11-20T06:39:17;24.55;;;21.35;;
29184;SDS011;16233;47.964;-3.842;2022-11-20T06:41:19;42.10;;;21.13;;
29184;SDS011;16233;47.964;-3.842;2022-11-20T06:43:21;32.80;;;21.10;;
29184;SDS011;16233;47.964;-3.842;2022-11-20T06:45:24;28.50;;;22.13;;
29184;SDS011;16233;47.964;-3.842;2022-11-20T06:47:25;24.27;;;20.58;;
29184;SDS011;16233;47.964;-3.842;2022-11-20T06:49:26;25.85;;;20.33;;
29184;SDS011;16233;47.964;-3.842;2022-11-20T06:51:27;31.55;;;20.80;;
29184;SDS011;16233;47.964;-3.842;2022-11-20T06:53:28;34.97;;;21.73;;
29184;SDS011;16233;47.964;-3.842;2022-11-20T06:55:29;31.40;;;20.75;;
29184;SDS011;16233;47.964;-3.842;2022-11-20T06:57:30;33.75;;;22.52;;
29184;SDS011;16233;47.964;-3.842;2022-11-20T06:59:32;32.50;;;22.65;;
29184;SDS011;16233;47.964;-3.842;2022-11-20T07:01:34;37.08;;;21.65;;
29184;SDS011;16233;47.964;-3.842;2022-11-20T07:03:35;33.30;;;22.90;;
29184;SDS011;16233;47.964;-3.842;2022-11-20T07:05:37;34.05;;;20.98;;
29184;SDS011;16233;47.964;-3.842;2022-11-20T07:07:38;44.60;;;22.63;;
29184;SDS011;16233;47.964;-3.842;2022-11-20T07:09:39;41.83;;;22.98;;
29184;SDS011;16233;47.964;-3.842;2022-11-20T07:11:40;44.92;;;22.17;;
29184;SDS011;16233;47.964;-3.842;2022-11-20T07:13:41;29.10;;;21.38;;
29184;SDS011;16233;47.964;-3.842;2022-11-20T07:15:42;39.72;;;21.10;;
29184;SDS011;16233;47.964;-3.842;2022-11-20T07:17:44;43.08;;;22.52;;
29184;SDS011;16233;47.964;-3.842;2022-11-20T07:19:45;36.80;;;21.75;;
29184;SDS011;16233;47.964;-3.842;2022-11-20T07:21:46;39.72;;;24.00;;
29184;SDS011;16233;47.964;-3.842;2022-11-20T07:23:47;31.40;;;22.55;;
29184;SDS011;16233;47.964;-3.842;2022-11-20T07:25:48;40.97;;;21.83;;
29184;SDS011;16233;47.964;-3.842;2022-11-20T07:27:52;40.58;;;22.23;;
29184;SDS011;16233;47.964;-3.842;2022-11-20T07:29:56;39.25;;;21.42;;
29184;SDS011;16233;47.964;-3.842;2022-11-20T07:31:57;40.95;;;24.15;;
29184;SDS011;16233;47.964;-3.842;2022-11-20T07:34:00;29.55;;;20.95;;
29184;SDS011;16233;47.964;-3.842;2022-11-20T07:36:01;45.95;;;22.25;;
29184;SDS011;16233;47.964;-3.842;2022-11-20T07:38:02;42.42;;;22.45;;
29184;SDS011;16233;47.964;-3.842;2022-11-20T07:40:03;53.95;;;22.98;;
29184;SDS011;16233;47.964;-3.842;2022-11-20T07:42:05;40.55;;;22.35;;
29184;SDS011;16233;47.964;-3.842;2022-11-20T07:44:07;51.83;;;23.23;;
29184;SDS011;16233;47.964;-3.842;2022-11-20T07:46:08;49.65;;;22.60;;
29184;SDS011;16233;47.964;-3.842;2022-11-20T07:48:09;38.50;;;20.70;;
29184;SDS011;16233;47.964;-3.842;2022-11-20T07:50:11;48.22;;;23.65;;
29184;SDS011;16233;47.964;-3.842;2022-11-20T07:52:12;37.15;;;20.48;;
29184;SDS011;16233;47.964;-3.842;2022-11-20T07:54:13;47.47;;;22.33;;
29184;SDS011;16233;47.964;-3.842;2022-11-20T07:56:14;46.90;;;22.58;;
29184;SDS011;16233;47.964;-3.842;2022-11-20T07:58:15;47.85;;;21.60;;
29184;SDS011;16233;47.964;-3.842;2022-11-20T08:00:17;44.65;;;22.27;;
29184;SDS011;16233;47.964;-3.842;2022-11-20T08:02:20;41.80;;;21.60;;
29184;SDS011;16233;47.964;-3.842;2022-11-20T08:04:20;44.03;;;22.45;;
29184;SDS011;16233;47.964;-3.842;2022-11-20T08:06:23;53.53;;;23.90;;
29184;SDS011;16233;47.964;-3.842;2022-11-20T08:08:24;42.78;;;23.25;;
29184;SDS011;16233;47.964;-3.842;2022-11-20T08:10:25;35.58;;;22.27;;
29184;SDS011;16233;47.964;-3.842;2022-11-20T08:12:26;38.78;;;20.63;;
29184;SDS011;16233;47.964;-3.842;2022-11-20T08:14:27;51.80;;;22.27;;
29184;SDS011;16233;47.964;-3.842;2022-11-20T08:16:28;49.13;;;21.55;;
29184;SDS011;16233;47.964;-3.842;2022-11-20T08:18:29;39.65;;;20.70;;
29184;SDS011;16233;47.964;-3.842;2022-11-20T08:20:30;42.33;;;21.27;;
29184;SDS011;16233;47.964;-3.842;2022-11-20T08:22:33;45.22;;;22.25;;
29184;SDS011;16233;47.964;-3.842;2022-11-20T08:24:34;41.03;;;21.58;;
29184;SDS011;16233;47.964;-3.842;2022-11-20T08:26:35;43.95;;;21.27;;
29184;SDS011;16233;47.964;-3.842;2022-11-20T08:28:36;46.00;;;24.45;;
29184;SDS011;16233;47.964;-3.842;2022-11-20T08:30:37;47.47;;;23.10;;
29184;SDS011;16233;47.964;-3.842;2022-11-20T08:32:38;57.97;;;24.80;;
29184;SDS011;16233;47.964;-3.842;2022-11-20T08:34:39;35.58;;;21.33;;
29184;SDS011;16233;47.964;-3.842;2022-11-20T08:36:40;46.83;;;23.75;;
29184;SDS011;16233;47.964;-3.842;2022-11-20T08:38:46;46.67;;;21.88;;
29184;SDS011;16233;47.964;-3.842;2022-11-20T08:40:47;42.47;;;22.20;;
29184;SDS011;16233;47.964;-3.842;2022-11-20T08:42:48;54.92;;;22.67;;
29184;SDS011;16233;47.964;-3.842;2022-11-20T08:44:50;45.70;;;21.85;;
29184;SDS011;16233;47.964;-3.842;2022-11-20T08:46:51;54.45;;;21.15;;
29184;SDS011;16233;47.964;-3.842;2022-11-20T08:48:52;42.70;;;21.23;;
29184;SDS011;16233;47.964;-3.842;2022-11-20T08:50:53;49.28;;;24.85;;
29184;SDS011;16233;47.964;-3.842;2022-11-20T08:53:01;63.88;;;23.67;;
29184;SDS011;16233;47.964;-3.842;2022-11-20T08:55:05;46.50;;;22.90;;
29184;SDS011;16233;47.964;-3.842;2022-11-20T08:57:07;57.75;;;25.48;;
29184;SDS011;16233;47.964;-3.842;2022-11-20T08:59:08;45.47;;;22.92;;
29184;SDS011;16233;47.964;-3.842;2022-11-20T09:01:09;50.42;;;25.33;;
29184;SDS011;16233;47.964;-3.842;2022-11-20T09:03:11;42.20;;;22.20;;
29184;SDS011;16233;47.964;-3.842;2022-11-20T09:05:12;57.35;;;24.45;;
29184;SDS011;16233;47.964;-3.842;2022-11-20T09:07:13;40.10;;;24.20;;
29184;SDS011;16233;47.964;-3.842;2022-11-20T09:09:14;48.03;;;23.95;;
29184;SDS011;16233;47.964;-3.842;2022-11-20T09:11:17;49.70;;;23.60;;
29184;SDS011;16233;47.964;-3.842;2022-11-20T09:13:18;41.40;;;21.33;;
29184;SDS011;16233;47.964;-3.842;2022-11-20T09:15:19;43.88;;;25.40;;
29184;SDS011;16233;47.964;-3.842;2022-11-20T09:17:20;49.15;;;23.40;;
29184;SDS011;16233;47.964;-3.842;2022-11-20T09:19:21;45.90;;;25.27;;
29184;SDS011;16233;47.964;-3.842;2022-11-20T09:21:23;48.08;;;22.45;;
29184;SDS011;16233;47.964;-3.842;2022-11-20T09:23:24;49.17;;;23.17;;
29184;SDS011;16233;47.964;-3.842;2022-11-20T09:25:26;48.80;;;23.83;;
29184;SDS011;16233;47.964;-3.842;2022-11-20T09:27:28;40.80;;;23.17;;
29184;SDS011;16233;47.964;-3.842;2022-11-20T09:29:29;44.10;;;24.98;;
29184;SDS011;16233;47.964;-3.842;2022-11-20T09:31:30;49.42;;;22.73;;
29184;SDS011;16233;47.964;-3.842;2022-11-20T09:33:31;45.20;;;23.20;;
29184;SDS011;16233;47.964;-3.842;2022-11-20T09:35:32;45.85;;;26.25;;
29184;SDS011;16233;47.964;-3.842;2022-11-20T09:37:34;47.55;;;24.58;;
29184;SDS011;16233;47.964;-3.842;2022-11-20T09:39:35;44.25;;;23.80;;
29184;SDS011;16233;47.964;-3.842;2022-11-20T09:41:43;38.20;;;22.70;;
29184;SDS011;16233;47.964;-3.842;2022-11-20T09:44:03;45.88;;;22.35;;
29184;SDS011;16233;47.964;-3.842;2022-11-20T09:46:14;46.63;;;23.55;;
29184;SDS011;16233;47.964;-3.842;2022-11-20T09:48:24;49.00;;;25.35;;
29184;SDS011;16233;47.964;-3.842;2022-11-20T09:50:36;39.67;;;23.38;;
29184;SDS011;16233;47.964;-3.842;2022-11-20T09:52:41;46.75;;;24.95;;
29184;SDS011;16233;47.964;-3.842;2022-11-20T09:54:50;47.38;;;24.05;;
29184;SDS011;16233;47.964;-3.842;2022-11-20T09:56:53;32.17;;;22.80;;
29184;SDS011;16233;47.964;-3.842;2022-11-20T09:58:57;38.97;;;22.98;;
29184;SDS011;16233;47.964;-3.842;2022-11-20T10:01:05;35.90;;;23.33;;
29184;SDS011;16233;47.964;-3.842;2022-11-20T10:03:13;40.60;;;24.60;;
29184;SDS011;16233;47.964;-3.842;2022-11-20T10:05:18;45.30;;;23.73;;
29184;SDS011;16233;47.964;-3.842;2022-11-20T10:07:22;44.75;;;25.10;;
29184;SDS011;16233;47.964;-3.842;2022-11-20T10:09:28;44.38;;;25.23;;
29184;SDS011;16233;47.964;-3.842;2022-11-20T10:11:33;46.10;;;25.05;;
29184;SDS011;16233;47.964;-3.842;2022-11-20T10:13:45;39.10;;;24.58;;
29184;SDS011;16233;47.964;-3.842;2022-11-20T10:16:07;45.83;;;25.67;;
29184;SDS011;16233;47.964;-3.842;2022-11-20T10:18:21;47.75;;;25.98;;
29184;SDS011;16233;47.964;-3.842;2022-11-20T10:20:34;41.22;;;24.08;;
29184;SDS011;16233;47.964;-3.842;2022-11-20T10:22:45;47.97;;;23.38;;
29184;SDS011;16233;47.964;-3.842;2022-11-20T10:24:56;43.08;;;23.25;;
29184;SDS011;16233;47.964;-3.842;2022-11-20T10:27:06;40.58;;;25.25;;
29184;SDS011;16233;47.964;-3.842;2022-11-20T10:29:21;37.70;;;25.48;;
29184;SDS011;16233;47.964;-3.842;2022-11-20T10:31:31;39.75;;;26.17;;
29184;SDS011;16233;47.964;-3.842;2022-11-20T10:33:36;45.42;;;24.42;;
29184;SDS011;16233;47.964;-3.842;2022-11-20T10:35:41;37.67;;;24.95;;
29184;SDS011;16233;47.964;-3.842;2022-11-20T10:37:45;44.63;;;29.13;;
29184;SDS011;16233;47.964;-3.842;2022-11-20T10:39:50;40.03;;;26.95;;
29184;SDS011;16233;47.964;-3.842;2022-11-20T10:41:59;52.33;;;27.80;;
29184;SDS011;16233;47.964;-3.842;2022-11-20T10:44:11;1999.90;;;999.90;;
29184;SDS011;16233;47.964;-3.842;2022-11-20T10:46:15;1999.90;;;999.90;;
29184;SDS011;16233;47.964;-3.842;2022-11-20T10:48:22;1999.90;;;999.90;;
29184;SDS011;16233;47.964;-3.842;2022-11-20T10:50:24;1999.90;;;999.90;;
29184;SDS011;16233;47.964;-3.842;2022-11-20T10:52:27;1999.90;;;999.90;;
29184;SDS011;16233;47.964;-3.842;2022-11-20T10:56:56;1999.90;;;999.90;;
29184;SDS011;16233;47.964;-3.842;2022-11-20T10:59:10;1999.90;;;999.90;;
29184;SDS011;16233;47.964;-3.842;2022-11-20T11:01:25;1999.90;;;999.90;;
29184;SDS011;16233;47.964;-3.842;2022-11-20T11:03:30;1999.90;;;999.90;;
29184;SDS011;16233;47.964;-3.842;2022-11-20T11:05:34;1999.90;;;999.90;;
29184;SDS011;16233;47.964;-3.842;2022-11-20T11:07:41;1999.90;;;999.90;;
29184;SDS011;16233;47.964;-3.842;2022-11-20T11:09:47;1999.90;;;999.90;;
29184;SDS011;16233;47.964;-3.842;2022-11-20T11:11:50;1999.90;;;999.90;;
29184;SDS011;16233;47.964;-3.842;2022-11-20T11:13:51;1999.90;;;999.90;;
29184;SDS011;16233;47.964;-3.842;2022-11-20T11:15:53;1999.90;;;999.90;;
29184;SDS011;16233;47.964;-3.842;2022-11-20T11:17:54;1999.90;;;999.90;;
29184;SDS011;16233;47.964;-3.842;2022-11-20T11:20:14;1999.90;;;999.90;;
29184;SDS011;16233;47.964;-3.842;2022-11-20T11:22:16;1999.90;;;999.90;;
29184;SDS011;16233;47.964;-3.842;2022-11-20T11:24:19;1999.90;;;999.90;;
29184;SDS011;16233;47.964;-3.842;2022-11-20T11:26:22;1999.90;;;999.90;;
29184;SDS011;16233;47.964;-3.842;2022-11-20T11:28:24;1999.90;;;999.90;;
29184;SDS011;16233;47.964;-3.842;2022-11-20T11:30:26;1999.90;;;999.90;;
29184;SDS011;16233;47.964;-3.842;2022-11-20T11:32:28;1999.90;;;999.90;;
29184;SDS011;16233;47.964;-3.842;2022-11-20T11:34:29;1999.90;;;999.90;;
29184;SDS011;16233;47.964;-3.842;2022-11-20T11:36:32;1999.90;;;999.90;;
29184;SDS011;16233;47.964;-3.842;2022-11-20T11:38:35;1999.90;;;999.90;;
29184;SDS011;16233;47.964;-3.842;2022-11-20T11:40:39;1999.90;;;999.90;;
29184;SDS011;16233;47.964;-3.842;2022-11-20T11:42:41;1999.90;;;999.90;;
29184;SDS011;16233;47.964;-3.842;2022-11-20T11:44:43;1999.90;;;999.90;;
29184;SDS011;16233;47.964;-3.842;2022-11-20T11:46:49;1999.90;;;999.90;;